createdAt,value
2023-05-09T00:01:14.934Z,71.40
2023-05-09T00:03:43.149Z,70.87
2023-05-09T00:06:11.626Z,70.97
2023-05-09T00:08:38.173Z,70.79
2023-05-09T00:11:04.992Z,71.15
2023-05-09T00:13:31.491Z,71.43
2023-05-09T00:15:58.502Z,71.76
2023-05-09T00:18:25.092Z,72.22
2023-05-09T00:20:51.646Z,71.86
2023-05-09T00:23:18.354Z,71.23
2023-05-09T00:25:45.102Z,71.31
2023-05-09T00:28:11.717Z,71.39
2023-05-09T00:30:38.271Z,71.25
2023-05-09T00:33:04.881Z,71.32
2023-05-09T00:35:32.356Z,71.28
2023-05-09T00:37:59.508Z,71.99
2023-05-09T00:40:26.126Z,71.88
2023-05-09T00:42:52.766Z,72.23
2023-05-09T00:45:19.405Z,72.17
2023-05-09T00:47:46.192Z,71.86
2023-05-09T00:50:13.775Z,71.33
2023-05-09T00:52:40.360Z,71.23
2023-05-09T00:55:08.383Z,71.07
2023-05-09T00:57:35.131Z,71.10
2023-05-09T01:00:01.841Z,70.84
2023-05-09T01:02:29.194Z,71.43
2023-05-09T01:04:56.318Z,71.80
2023-05-09T01:07:31.403Z,71.91
2023-05-09T01:10:35.447Z,71.63
2023-05-09T01:13:24.620Z,71.12
2023-05-09T01:15:56.369Z,71.18
2023-05-09T01:18:33.012Z,71.49
2023-05-09T01:21:08.808Z,72.04
2023-05-09T01:23:44.974Z,72.34
2023-05-09T01:26:19.340Z,72.50
2023-05-09T01:29:23.560Z,72.40
2023-05-09T01:31:50.223Z,71.79
2023-05-09T01:34:17.576Z,71.75
2023-05-09T01:36:44.171Z,71.15
2023-05-09T01:39:12.323Z,71.68
2023-05-09T01:41:38.920Z,71.43
2023-05-09T01:44:10.479Z,71.88
2023-05-09T01:46:37.904Z,72.24
2023-05-09T01:49:05.777Z,71.97
2023-05-09T01:51:32.746Z,71.69
2023-05-09T01:53:59.331Z,71.46
2023-05-09T01:56:27.368Z,71.85
2023-05-09T01:58:56.511Z,71.70
2023-05-09T02:01:26.339Z,71.70
2023-05-09T02:03:55.504Z,72.24
2023-05-09T02:06:25.071Z,72.55
2023-05-09T02:08:54.215Z,72.43
2023-05-09T02:11:23.244Z,71.91
2023-05-09T02:13:52.926Z,71.70
2023-05-09T02:16:23.255Z,71.51
2023-05-09T02:18:52.750Z,71.39
2023-05-09T02:21:22.064Z,71.88
2023-05-09T02:23:51.119Z,71.95
2023-05-09T02:26:20.867Z,71.88
2023-05-09T02:28:48.477Z,71.77
2023-05-09T02:31:18.107Z,71.77
2023-05-09T02:33:47.998Z,71.64
2023-05-09T02:36:17.266Z,71.87
2023-05-09T02:38:47.328Z,72.08
2023-05-09T02:41:15.911Z,72.50
2023-05-09T02:43:44.387Z,72.40
2023-05-09T02:46:12.570Z,72.33
2023-05-09T02:48:41.585Z,72.29
2023-05-09T02:51:10.222Z,72.06
2023-05-09T02:53:40.208Z,71.87
2023-05-09T03:03:28.964Z,72.72
2023-05-09T03:05:56.300Z,72.52
2023-05-09T03:08:22.924Z,72.22
2023-05-09T03:10:49.504Z,72.14
2023-05-09T03:13:16.448Z,72.29
2023-05-09T03:15:43.138Z,72.61
2023-05-09T03:18:12.541Z,72.53
2023-05-09T03:20:39.878Z,71.96
2023-05-09T03:23:06.480Z,71.78
2023-05-09T03:25:33.055Z,71.55
2023-05-09T03:27:59.556Z,71.77
2023-05-09T03:30:27.269Z,71.84
2023-05-09T03:32:54.493Z,72.17
2023-05-09T03:35:21.160Z,72.02
2023-05-09T03:37:47.717Z,72.05
2023-05-09T03:40:14.271Z,71.83
2023-05-09T03:42:48.978Z,71.10
2023-05-09T03:45:15.829Z,71.01
2023-05-09T03:47:43.394Z,71.13
2023-05-09T03:50:11.326Z,71.66
2023-05-09T03:52:38.726Z,72.10
2023-05-09T03:55:06.404Z,71.58
2023-05-09T03:57:34.933Z,71.52
2023-05-09T04:00:02.313Z,71.63
2023-05-09T04:02:29.029Z,71.85
2023-05-09T04:04:55.920Z,71.93
2023-05-09T04:07:22.940Z,71.95
2023-05-09T04:09:50.445Z,72.39
2023-05-09T04:12:17.152Z,71.92
2023-05-09T04:14:46.170Z,71.75
2023-05-09T04:17:14.876Z,71.57
2023-05-09T04:19:41.678Z,71.68
2023-05-09T04:22:08.153Z,71.63
2023-05-09T04:24:34.678Z,72.26
2023-05-09T04:27:02.115Z,72.61
2023-05-09T04:29:28.834Z,72.61
2023-05-09T04:31:56.250Z,72.47
2023-05-09T04:34:26.353Z,72.30
2023-05-09T04:36:54.120Z,72.21
2023-05-09T04:39:20.794Z,72.10
2023-05-09T04:41:54.293Z,72.04
2023-05-09T04:44:21.717Z,72.59
2023-05-09T04:46:48.787Z,72.90
2023-05-09T04:49:15.715Z,72.78
2023-05-09T04:51:42.190Z,72.59
2023-05-09T04:54:08.724Z,72.41
2023-05-09T04:56:36.389Z,72.02
2023-05-09T04:59:03.624Z,72.13
2023-05-09T05:01:30.968Z,72.02
2023-05-09T05:03:58.086Z,72.12
2023-05-09T05:06:24.641Z,73.01
2023-05-09T05:08:51.135Z,72.43
2023-05-09T05:11:21.888Z,72.13
2023-05-09T05:13:48.553Z,71.66
2023-05-09T05:16:15.420Z,71.44
2023-05-09T05:18:42.271Z,71.12
2023-05-09T05:21:09.019Z,70.98
2023-05-09T05:23:36.028Z,70.77
2023-05-09T05:26:02.582Z,71.17
2023-05-09T05:28:29.905Z,71.42
2023-05-09T05:30:56.404Z,71.31
2023-05-09T05:33:22.995Z,70.89
2023-05-09T05:35:49.814Z,70.55
2023-05-09T05:38:16.295Z,70.41
2023-05-09T05:40:43.293Z,70.30
2023-05-09T05:43:10.424Z,70.29
2023-05-09T05:45:37.749Z,70.55
2023-05-09T05:48:05.342Z,70.74
2023-05-09T05:50:32.120Z,70.61
2023-05-09T05:52:59.303Z,70.42
2023-05-09T05:55:26.003Z,69.82
2023-05-09T05:57:52.597Z,69.77
2023-05-09T06:00:20.601Z,69.52
2023-05-09T06:02:50.135Z,69.32
2023-05-09T06:05:24.328Z,69.46
2023-05-09T06:07:51.360Z,69.48
2023-05-09T06:10:17.865Z,69.75
2023-05-09T06:12:45.078Z,68.40
2023-05-09T06:15:12.098Z,69.18
2023-05-09T06:17:40.881Z,69.42
2023-05-09T06:20:07.792Z,68.76
2023-05-09T06:22:34.361Z,68.64
2023-05-09T06:25:00.993Z,68.02
2023-05-09T06:27:27.567Z,67.97
2023-05-09T06:29:54.085Z,67.60
2023-05-09T06:32:21.229Z,67.85
2023-05-09T06:34:48.259Z,68.06
2023-05-09T06:37:14.691Z,68.31
2023-05-09T06:39:41.197Z,67.84
2023-05-09T06:42:07.775Z,67.39
2023-05-09T06:44:37.264Z,68.16
2023-05-09T06:47:03.787Z,68.51
2023-05-09T06:49:30.452Z,68.79
2023-05-09T06:51:56.905Z,67.92
2023-05-09T06:54:23.376Z,67.45
2023-05-09T06:56:49.868Z,67.55
2023-05-09T06:59:16.623Z,67.25
2023-05-09T07:01:43.150Z,67.32
2023-05-09T07:04:09.665Z,65.59
2023-05-09T07:06:36.256Z,67.05
2023-05-09T07:09:04.239Z,66.59
2023-05-09T07:11:36.969Z,68.19
2023-05-09T07:14:04.053Z,67.42
2023-05-09T07:16:30.689Z,66.81
2023-05-09T07:18:57.261Z,67.19
2023-05-09T07:21:23.740Z,66.58
2023-05-09T07:23:50.325Z,66.59
2023-05-09T07:26:16.790Z,66.74
2023-05-09T07:28:43.276Z,66.97
2023-05-09T07:31:09.747Z,65.94
2023-05-09T07:33:36.304Z,66.23
2023-05-09T07:36:02.950Z,66.19
2023-05-09T07:38:29.488Z,66.20
2023-05-09T07:40:56.008Z,67.01
2023-05-09T07:43:22.586Z,67.42
2023-05-09T07:45:49.290Z,67.28
2023-05-09T07:48:15.858Z,66.50
2023-05-09T07:50:42.299Z,67.32
2023-05-09T07:53:08.720Z,67.04
2023-05-09T07:55:35.182Z,67.65
2023-05-09T07:58:01.679Z,67.50
2023-05-09T08:00:28.158Z,68.10
2023-05-09T08:02:55.121Z,67.57
2023-05-09T08:05:21.706Z,67.65
2023-05-09T08:07:48.301Z,67.30
2023-05-09T08:10:14.859Z,66.61
2023-05-09T08:12:41.360Z,65.83
2023-05-09T08:15:09.016Z,64.84
2023-05-09T08:17:35.592Z,65.78
2023-05-09T08:20:02.226Z,66.02
2023-05-09T08:22:28.704Z,65.89
2023-05-09T08:24:55.232Z,65.56
2023-05-09T08:27:21.830Z,65.37
2023-05-09T08:29:48.252Z,65.22
2023-05-09T08:32:14.844Z,65.40
2023-05-09T08:34:41.433Z,65.22
2023-05-09T08:37:08.003Z,65.38
2023-05-09T08:39:35.273Z,65.23
2023-05-09T08:42:02.416Z,64.08
2023-05-09T08:44:30.009Z,63.85
2023-05-09T08:46:58.850Z,62.85
2023-05-09T08:49:25.753Z,62.96
2023-05-09T08:51:52.299Z,62.06
2023-05-09T08:54:20.636Z,61.65
2023-05-09T08:56:49.054Z,60.15
2023-05-09T08:59:15.665Z,59.33
2023-05-09T09:01:42.291Z,58.98
2023-05-09T09:04:09.017Z,58.00
2023-05-09T09:06:35.715Z,57.92
2023-05-09T09:09:02.381Z,56.84
2023-05-09T09:11:28.887Z,58.46
2023-05-09T09:13:55.440Z,58.79
2023-05-09T09:16:22.678Z,58.47
2023-05-09T09:18:50.954Z,58.23
2023-05-09T09:21:17.573Z,57.88
2023-05-09T09:23:44.400Z,56.84
2023-05-09T09:26:10.930Z,56.61
2023-05-09T09:28:37.547Z,55.91
2023-05-09T09:31:28.530Z,54.76
2023-05-09T09:34:01.908Z,54.60
2023-05-09T09:36:32.561Z,54.30
2023-05-09T09:39:00.657Z,51.14
2023-05-09T09:41:34.332Z,50.13
2023-05-09T09:44:13.753Z,53.36
2023-05-09T09:46:44.904Z,52.54
2023-05-09T09:49:12.554Z,52.52
2023-05-09T09:51:40.117Z,50.77
2023-05-09T09:54:07.974Z,51.11
2023-05-09T09:56:41.942Z,52.04
2023-05-09T09:59:15.522Z,51.22
2023-05-09T10:02:08.663Z,52.67
2023-05-09T10:04:36.863Z,52.42
2023-05-09T10:07:05.227Z,52.66
2023-05-09T10:09:32.948Z,52.36
2023-05-09T10:12:06.798Z,53.38
2023-05-09T10:14:35.634Z,52.33
2023-05-09T10:17:04.468Z,51.96
2023-05-09T10:19:31.892Z,53.14
2023-05-09T10:22:01.991Z,53.48
2023-05-09T10:24:34.513Z,52.76
2023-05-09T10:27:06.157Z,52.45
2023-05-09T10:29:35.309Z,51.86
2023-05-09T10:32:06.679Z,50.63
2023-05-09T10:34:33.344Z,51.14
2023-05-09T10:37:00.883Z,51.59
2023-05-09T10:39:27.797Z,50.98
2023-05-09T10:41:54.358Z,51.44
2023-05-09T10:44:23.108Z,51.19
2023-05-09T10:46:49.721Z,52.50
2023-05-09T10:49:16.380Z,54.23
2023-05-09T10:51:42.944Z,53.52
2023-05-09T10:54:16.483Z,54.26
2023-05-09T10:56:45.252Z,55.16
2023-05-09T10:59:40.012Z,54.89
2023-05-09T11:02:19.485Z,55.11
2023-05-09T11:04:48.652Z,56.34
2023-05-09T11:07:30.333Z,57.56
2023-05-09T11:10:15.402Z,57.45
2023-05-09T11:12:58.573Z,56.73
2023-05-09T11:15:30.280Z,57.13
2023-05-09T11:18:08.551Z,56.79
2023-05-09T11:20:37.748Z,56.74
2023-05-09T11:23:06.887Z,56.69
2023-05-09T11:25:36.127Z,56.21
2023-05-09T11:28:07.378Z,55.89
2023-05-09T11:30:45.689Z,55.77
2023-05-09T11:33:25.253Z,55.86
2023-05-09T11:36:25.489Z,55.94
2023-05-09T11:39:06.472Z,56.29
2023-05-09T11:41:54.202Z,56.35
2023-05-09T11:44:23.814Z,56.08
2023-05-09T11:46:52.380Z,56.08
2023-05-09T11:49:21.824Z,55.89
2023-05-09T11:51:50.337Z,55.59
2023-05-09T11:54:19.275Z,55.36
2023-05-09T12:04:01.785Z,54.41
2023-05-09T12:06:30.074Z,54.33
2023-05-09T12:08:57.768Z,54.35
2023-05-09T12:11:24.257Z,54.07
2023-05-09T12:13:52.358Z,53.65
2023-05-09T12:16:19.439Z,53.76
2023-05-09T12:18:50.579Z,53.27
2023-05-09T12:21:17.720Z,53.11
2023-05-09T12:23:44.703Z,52.83
2023-05-09T12:26:11.250Z,52.71
2023-05-09T12:28:37.806Z,52.11
2023-05-09T12:31:04.592Z,51.95
2023-05-09T12:33:31.936Z,51.68
2023-05-09T12:36:10.394Z,51.22
2023-05-09T12:38:37.364Z,50.90
2023-05-09T12:41:05.444Z,50.92
2023-05-09T12:43:33.307Z,50.72
2023-05-09T12:46:00.730Z,50.72
2023-05-09T12:48:27.581Z,50.37
2023-05-09T12:50:54.148Z,49.59
2023-05-09T12:53:27.930Z,49.55
2023-05-09T12:55:56.648Z,49.58
2023-05-09T12:58:23.227Z,49.80
2023-05-09T13:00:49.804Z,49.71
2023-05-09T13:03:25.420Z,49.31
2023-05-09T13:05:59.464Z,49.63
2023-05-09T13:08:26.126Z,49.71
2023-05-09T13:11:00.757Z,49.82
2023-05-09T13:13:31.060Z,50.25
2023-05-09T13:15:57.624Z,50.01
2023-05-09T13:18:24.621Z,49.50
2023-05-09T13:20:51.568Z,49.51
2023-05-09T13:26:37.236Z,49.82
2023-05-09T13:29:03.973Z,49.25
2023-05-09T13:31:31.341Z,49.35
2023-05-09T13:33:57.818Z,49.69
2023-05-09T13:36:24.470Z,49.82
2023-05-09T13:38:51.032Z,49.84
2023-05-09T13:41:21.743Z,49.89
2023-05-09T13:43:48.335Z,49.82
2023-05-09T13:46:14.931Z,49.70
2023-05-09T13:56:03.019Z,50.54
2023-05-09T13:58:29.671Z,50.24
2023-05-09T14:00:56.333Z,50.28
2023-05-09T14:03:22.875Z,50.58
2023-05-09T14:05:49.518Z,50.88
2023-05-09T14:08:16.927Z,50.85
2023-05-09T14:10:44.670Z,50.84
2023-05-09T14:13:12.599Z,50.86
2023-05-09T14:15:40.385Z,50.81
2023-05-09T14:18:07.159Z,51.04
2023-05-09T14:20:37.103Z,51.09
2023-05-09T14:23:03.702Z,51.25
2023-05-09T14:25:30.286Z,51.07
2023-05-09T14:27:56.933Z,51.34
2023-05-09T14:30:25.832Z,51.38
2023-05-09T14:32:52.739Z,51.28
2023-05-09T14:35:19.374Z,51.46
2023-05-09T14:37:45.914Z,51.48
2023-05-09T14:40:13.460Z,51.55
2023-05-09T14:42:40.234Z,51.47
2023-05-09T14:45:10.622Z,51.40
2023-05-09T14:47:37.346Z,51.15
2023-05-09T14:50:04.500Z,51.14
2023-05-09T14:52:31.059Z,51.33
2023-05-09T14:54:59.883Z,51.46
2023-05-09T14:57:26.775Z,51.50
2023-05-09T14:59:53.399Z,51.62
2023-05-09T15:02:20.078Z,51.54
2023-05-09T15:04:46.675Z,51.92
2023-05-09T15:07:13.392Z,51.69
2023-05-09T15:09:39.971Z,51.91
2023-05-09T15:12:06.675Z,52.04
2023-05-09T15:14:33.282Z,52.10
2023-05-09T15:17:03.323Z,52.34
2023-05-09T15:19:31.902Z,52.46
2023-05-09T15:22:00.006Z,52.48
2023-05-09T15:24:27.019Z,52.58
2023-05-09T15:26:54.496Z,52.79
2023-05-09T15:29:21.939Z,53.19
2023-05-09T15:31:49.005Z,53.31
2023-05-09T15:34:15.719Z,53.39
2023-05-09T15:36:42.223Z,53.29
2023-05-09T15:39:08.818Z,53.18
2023-05-09T15:41:35.527Z,53.02
2023-05-09T15:44:02.099Z,52.86
2023-05-09T15:46:28.757Z,52.86
2023-05-09T15:48:56.943Z,53.00
2023-05-09T15:51:23.485Z,53.11
2023-05-09T15:53:50.270Z,53.25
2023-05-09T15:56:16.943Z,53.38
2023-05-09T15:58:43.645Z,53.02
2023-05-09T16:01:13.210Z,53.24
2023-05-09T16:03:41.162Z,53.20
2023-05-09T16:06:07.822Z,53.26
2023-05-09T16:08:34.326Z,53.35
2023-05-09T16:11:01.992Z,53.27
2023-05-09T16:13:29.891Z,53.24
2023-05-09T16:15:56.924Z,53.41
2023-05-09T16:18:23.566Z,53.64
2023-05-09T16:20:50.461Z,54.13
2023-05-09T16:23:17.034Z,54.16
2023-05-09T16:25:45.034Z,54.26
2023-05-09T16:28:11.611Z,54.58
2023-05-09T16:30:38.057Z,54.72
2023-05-09T16:33:04.831Z,54.72
2023-05-09T16:35:31.458Z,54.63
2023-05-09T16:37:58.059Z,54.83
2023-05-09T16:40:24.676Z,55.06
2023-05-09T16:42:51.137Z,55.12
2023-05-09T16:45:17.637Z,55.00
2023-05-09T16:47:44.320Z,55.28
2023-05-09T16:50:11.070Z,55.40
2023-05-09T16:52:37.630Z,55.40
2023-05-09T16:55:04.944Z,55.64
2023-05-09T16:57:31.744Z,55.63
2023-05-09T16:59:58.572Z,55.69
2023-05-09T17:02:25.170Z,55.79
2023-05-09T17:04:51.960Z,55.85
2023-05-09T17:07:19.144Z,55.95
2023-05-09T17:09:45.685Z,55.93
2023-05-09T17:12:17.581Z,55.94
2023-05-09T17:14:45.520Z,55.72
2023-05-09T17:17:13.189Z,55.80
2023-05-09T17:19:39.731Z,56.08
2023-05-09T17:22:07.956Z,56.04
2023-05-09T17:24:35.162Z,56.24
2023-05-09T17:27:01.895Z,56.44
2023-05-09T17:29:32.057Z,56.35
2023-05-09T17:32:02.140Z,56.52
2023-05-09T17:34:29.014Z,56.51
2023-05-09T17:36:56.346Z,56.88
2023-05-09T17:39:23.269Z,56.69
2023-05-09T17:41:49.744Z,56.54
2023-05-09T17:44:16.852Z,56.80
2023-05-09T17:54:20.040Z,57.24
2023-05-09T17:56:50.447Z,57.60
2023-05-09T17:59:17.460Z,57.54
2023-05-09T18:01:43.229Z,57.73
2023-05-09T18:04:09.110Z,57.73
2023-05-09T18:06:36.573Z,57.46
2023-05-09T18:09:02.586Z,57.62
2023-05-09T18:11:28.729Z,57.97
2023-05-09T18:13:55.185Z,58.01
2023-05-09T18:16:21.211Z,58.02
2023-05-09T18:18:47.132Z,57.94
2023-05-09T18:21:13.315Z,58.20
2023-05-09T18:23:40.141Z,58.20
2023-05-09T18:26:06.080Z,58.10
2023-05-09T18:28:38.472Z,58.09
2023-05-09T18:31:05.761Z,58.33
2023-05-09T18:33:36.238Z,58.36
2023-05-09T18:36:02.452Z,58.60
2023-05-09T18:38:28.500Z,58.65
2023-05-09T18:40:54.411Z,58.80
2023-05-09T18:43:21.053Z,58.73
2023-05-09T18:45:47.581Z,58.88
2023-05-09T18:48:15.803Z,58.85
2023-05-09T18:50:42.094Z,58.91
2023-05-09T18:53:08.367Z,58.90
2023-05-09T18:55:34.348Z,59.56
2023-05-09T18:58:00.158Z,60.02
2023-05-09T19:00:25.967Z,60.32
2023-05-09T19:02:51.768Z,59.92
2023-05-09T19:05:17.930Z,59.64
2023-05-09T19:07:43.693Z,59.50
2023-05-09T19:10:10.501Z,59.33
2023-05-09T19:12:36.776Z,59.67
2023-05-09T19:15:03.229Z,59.61
2023-05-09T19:17:29.299Z,59.65
2023-05-09T19:19:55.116Z,59.78
2023-05-09T19:22:20.906Z,59.92
2023-05-09T19:24:46.697Z,60.08
2023-05-09T19:27:12.822Z,60.15
2023-05-09T19:29:38.782Z,60.28
2023-05-09T19:32:06.481Z,60.58
2023-05-09T19:34:32.628Z,60.59
2023-05-09T19:36:58.397Z,61.04
2023-05-09T19:39:24.251Z,61.44
2023-05-09T19:41:50.038Z,61.52
2023-05-09T19:44:15.988Z,61.18
2023-05-09T19:46:42.491Z,60.66
2023-05-09T19:49:09.647Z,60.76
2023-05-09T19:51:35.508Z,60.58
2023-05-09T19:54:01.404Z,60.46
2023-05-09T19:56:27.155Z,60.46
2023-05-09T19:58:53.049Z,60.55
2023-05-09T20:01:19.290Z,60.78
2023-05-09T20:03:46.325Z,60.48
2023-05-09T20:06:12.977Z,60.36
2023-05-09T20:08:38.837Z,60.09
2023-05-09T20:11:04.947Z,60.04
2023-05-09T20:13:30.746Z,60.16
2023-05-09T20:15:58.395Z,60.01
2023-05-09T20:18:24.433Z,60.31
2023-05-09T20:20:50.494Z,60.51
2023-05-09T20:23:16.285Z,60.59
2023-05-09T20:25:42.062Z,60.54
2023-05-09T20:28:11.007Z,60.66
2023-05-09T20:30:37.092Z,61.17
2023-05-09T20:33:02.997Z,61.27
2023-05-09T20:35:28.794Z,60.81
2023-05-09T20:37:54.607Z,60.61
2023-05-09T20:40:20.483Z,60.37
2023-05-09T20:42:46.527Z,60.69
2023-05-09T20:45:12.413Z,60.36
2023-05-09T20:47:39.337Z,60.06
2023-05-09T20:50:06.481Z,60.19
2023-05-09T20:52:32.243Z,60.16
2023-05-09T20:54:58.661Z,60.14
2023-05-09T20:57:24.669Z,60.44
2023-05-09T20:59:50.540Z,60.47
2023-05-09T21:02:16.348Z,60.66
2023-05-09T21:04:42.196Z,60.99
2023-05-09T21:07:09.301Z,61.06
2023-05-09T21:09:35.321Z,61.48
2023-05-09T21:12:03.175Z,61.79
2023-05-09T21:14:29.280Z,61.47
2023-05-09T21:16:57.374Z,61.00
2023-05-09T21:19:24.147Z,60.70
2023-05-09T21:21:49.919Z,60.64
2023-05-09T21:24:15.647Z,60.45
2023-05-09T21:26:41.458Z,60.70
2023-05-09T21:29:07.323Z,60.41
2023-05-09T21:31:33.684Z,60.39
2023-05-09T21:34:00.193Z,60.42
2023-05-09T21:36:26.048Z,60.42
2023-05-09T21:38:51.862Z,60.62
2023-05-09T21:41:17.712Z,60.64
2023-05-09T21:43:43.569Z,60.64
2023-05-09T21:46:09.468Z,60.53
2023-05-09T21:48:35.262Z,60.78
2023-05-09T21:51:02.191Z,61.00
2023-05-09T21:53:28.095Z,61.40
2023-05-09T21:55:53.865Z,61.92
2023-05-09T21:58:19.694Z,61.41
2023-05-09T22:00:45.784Z,61.05
2023-05-09T22:03:11.745Z,61.15
2023-05-09T22:05:37.691Z,61.16
2023-05-09T22:08:03.888Z,61.11
2023-05-09T22:10:29.942Z,60.97
2023-05-09T22:20:16.578Z,61.21
2023-05-09T22:22:43.319Z,61.41
2023-05-09T22:25:09.987Z,61.38
2023-05-09T22:27:36.468Z,61.03
2023-05-09T22:30:03.171Z,61.27
2023-05-09T22:32:29.681Z,61.31
2023-05-09T22:34:56.660Z,61.41
2023-05-09T22:37:23.285Z,62.01
2023-05-09T22:39:49.754Z,62.68
2023-05-09T22:42:16.353Z,62.20
2023-05-09T22:44:43.174Z,61.92
2023-05-09T22:47:09.784Z,62.05
2023-05-09T22:49:36.444Z,61.97
2023-05-09T22:52:03.168Z,62.13
2023-05-09T22:54:29.697Z,62.27
2023-05-09T22:56:56.221Z,62.50
2023-05-09T22:59:23.094Z,62.73
2023-05-09T23:01:49.697Z,62.87
2023-05-09T23:04:16.415Z,62.73
2023-05-09T23:06:42.984Z,62.60
2023-05-09T23:09:10.625Z,62.75
2023-05-09T23:11:37.572Z,62.91
2023-05-09T23:14:04.010Z,63.71
2023-05-09T23:16:30.517Z,64.15
2023-05-09T23:18:56.987Z,64.20
2023-05-09T23:21:23.390Z,63.98
2023-05-09T23:23:49.894Z,63.49
2023-05-09T23:26:16.411Z,63.28
2023-05-09T23:28:43.028Z,63.20
2023-05-09T23:31:10.311Z,63.21
2023-05-09T23:33:36.820Z,63.25
2023-05-09T23:36:03.482Z,63.20
2023-05-09T23:38:29.938Z,63.35
2023-05-09T23:40:58.346Z,63.29
2023-05-09T23:43:25.152Z,63.33
2023-05-09T23:45:51.732Z,63.50
2023-05-09T23:48:18.271Z,64.18
2023-05-09T23:50:44.812Z,64.52
2023-05-09T23:53:11.977Z,64.42
2023-05-09T23:55:38.493Z,64.25
2023-05-09T23:58:04.981Z,64.30
